createdAt,value
2023-05-19T00:02:05.599Z,99484.97
2023-05-19T00:04:33.693Z,99478.41
2023-05-19T00:07:03.031Z,99491.88
2023-05-19T00:09:30.497Z,99485.00
2023-05-19T00:11:57.996Z,99481.16
2023-05-19T00:14:25.508Z,99475.19
2023-05-19T00:16:53.013Z,99471.38
2023-05-19T00:19:20.486Z,99473.28
2023-05-19T00:21:48.384Z,99467.19
2023-05-19T00:24:15.784Z,99472.56
2023-05-19T00:26:43.122Z,99467.78
2023-05-19T00:29:10.816Z,99462.84
2023-05-19T00:31:38.228Z,99465.28
2023-05-19T00:34:05.546Z,99477.09
2023-05-19T00:36:32.874Z,99457.91
2023-05-19T00:39:00.205Z,99465.16
2023-05-19T00:41:28.753Z,99464.16
2023-05-19T00:43:56.264Z,99471.34
2023-05-19T00:46:23.830Z,99470.41
2023-05-19T00:48:51.334Z,99469.72
2023-05-19T00:51:18.824Z,99461.19
2023-05-19T00:53:49.235Z,99462.34
2023-05-19T00:56:17.522Z,99460.19
2023-05-19T00:58:45.423Z,99466.69
2023-05-19T01:01:14.564Z,99465.72
2023-05-19T01:03:43.066Z,99463.75
2023-05-19T01:06:12.157Z,99465.84
2023-05-19T01:08:39.610Z,99462.78
2023-05-19T01:11:07.417Z,99462.47
2023-05-19T01:13:35.535Z,99464.50
2023-05-19T01:16:26.126Z,99458.91
2023-05-19T01:19:12.594Z,99459.06
2023-05-19T01:21:46.026Z,99456.84
2023-05-19T01:24:23.113Z,99460.84
2023-05-19T01:26:57.193Z,99452.47
2023-05-19T01:29:41.177Z,99459.69
2023-05-19T01:32:09.382Z,99464.16
2023-05-19T01:34:39.233Z,99461.25
2023-05-19T01:37:07.903Z,99468.63
2023-05-19T01:39:36.302Z,99467.25
2023-05-19T01:42:04.729Z,99461.34
2023-05-19T01:44:32.964Z,99473.72
2023-05-19T01:47:00.888Z,99474.34
2023-05-19T01:49:28.362Z,99474.72
2023-05-19T01:51:56.092Z,99467.81
2023-05-19T01:54:23.447Z,99466.56
2023-05-19T01:57:04.254Z,99462.84
